sensor_id;sensor_type;location;lat;lon;timestamp;pressure;altitude;pressure_sealevel;temperature;humidity
21401;BME280;18038;50.166;18.908;2023-03-14T00:00:29;96514.53;;;8.16;50.71
21401;BME280;18038;50.166;18.908;2023-03-14T00:03:38;96496.56;;;8.12;50.66
21401;BME280;18038;50.166;18.908;2023-03-14T00:06:44;96504.91;;;8.15;50.36
21401;BME280;18038;50.166;18.908;2023-03-14T00:09:55;96496.75;;;8.10;50.96
21401;BME280;18038;50.166;18.908;2023-03-14T00:13:08;96481.69;;;8.04;50.83
21401;BME280;18038;50.166;18.908;2023-03-14T00:16:21;96467.19;;;8.00;51.24
21401;BME280;18038;50.166;18.908;2023-03-14T00:19:30;96450.81;;;8.03;51.04
21401;BME280;18038;50.166;18.908;2023-03-14T00:22:38;96413.59;;;8.03;51.29
21401;BME280;18038;50.166;18.908;2023-03-14T00:25:46;96423.22;;;7.97;50.94
21401;BME280;18038;50.166;18.908;2023-03-14T00:28:54;96421.19;;;7.99;50.98
21401;BME280;18038;50.166;18.908;2023-03-14T00:32:00;96420.38;;;7.99;51.49
21401;BME280;18038;50.166;18.908;2023-03-14T00:35:08;96420.38;;;7.99;50.83
21401;BME280;18038;50.166;18.908;2023-03-14T00:38:14;96396.88;;;7.96;50.94
21401;BME280;18038;50.166;18.908;2023-03-14T00:41:23;96384.75;;;8.00;50.80
21401;BME280;18038;50.166;18.908;2023-03-14T00:44:29;96375.78;;;8.01;50.63
21401;BME280;18038;50.166;18.908;2023-03-14T00:47:36;96376.13;;;8.04;51.09
21401;BME280;18038;50.166;18.908;2023-03-14T00:50:43;96376.94;;;8.05;51.00
21401;BME280;18038;50.166;18.908;2023-03-14T00:54:02;96377.91;;;8.10;50.38
21401;BME280;18038;50.166;18.908;2023-03-14T00:57:13;96369.72;;;8.12;50.21
21401;BME280;18038;50.166;18.908;2023-03-14T01:00:26;96356.75;;;8.22;49.77
21401;BME280;18038;50.166;18.908;2023-03-14T01:03:32;96362.44;;;8.26;49.87
21401;BME280;18038;50.166;18.908;2023-03-14T01:06:39;96361.19;;;8.28;49.47
21401;BME280;18038;50.166;18.908;2023-03-14T01:09:45;96362.81;;;8.29;49.27
21401;BME280;18038;50.166;18.908;2023-03-14T01:12:55;96361.63;;;8.25;50.15
21401;BME280;18038;50.166;18.908;2023-03-14T01:16:02;96348.41;;;8.19;49.93
21401;BME280;18038;50.166;18.908;2023-03-14T01:19:12;96329.84;;;8.12;49.94
21401;BME280;18038;50.166;18.908;2023-03-14T01:22:18;96306.97;;;8.11;49.85
21401;BME280;18038;50.166;18.908;2023-03-14T01:25:26;96284.19;;;8.15;49.91
21401;BME280;18038;50.166;18.908;2023-03-14T01:28:35;96274.81;;;8.13;50.26
21401;BME280;18038;50.166;18.908;2023-03-14T01:31:49;96265.72;;;8.02;50.34
21401;BME280;18038;50.166;18.908;2023-03-14T01:35:15;96257.53;;;7.85;51.11
21401;BME280;18038;50.166;18.908;2023-03-14T01:38:22;96259.44;;;7.78;51.04
21401;BME280;18038;50.166;18.908;2023-03-14T01:41:29;96245.78;;;7.74;51.45
21401;BME280;18038;50.166;18.908;2023-03-14T01:44:53;96239.88;;;7.72;51.28
21401;BME280;18038;50.166;18.908;2023-03-14T01:48:00;96235.22;;;7.86;50.18
21401;BME280;18038;50.166;18.908;2023-03-14T01:51:12;96230.56;;;8.00;49.64
21401;BME280;18038;50.166;18.908;2023-03-14T01:54:27;96224.94;;;8.08;49.94
21401;BME280;18038;50.166;18.908;2023-03-14T01:57:42;96229.00;;;8.10;49.62
21401;BME280;18038;50.166;18.908;2023-03-14T02:00:54;96246.22;;;8.08;50.02
21401;BME280;18038;50.166;18.908;2023-03-14T02:04:17;96249.28;;;8.12;50.23
21401;BME280;18038;50.166;18.908;2023-03-14T02:07:33;96247.41;;;8.12;50.67
21401;BME280;18038;50.166;18.908;2023-03-14T02:10:51;96257.84;;;7.95;50.82
21401;BME280;18038;50.166;18.908;2023-03-14T02:14:35;96255.59;;;7.92;50.67
21401;BME280;18038;50.166;18.908;2023-03-14T02:17:59;96251.03;;;7.99;50.88
21401;BME280;18038;50.166;18.908;2023-03-14T02:21:44;96251.13;;;8.11;50.11
21401;BME280;18038;50.166;18.908;2023-03-14T02:25:08;96263.66;;;8.22;50.12
21401;BME280;18038;50.166;18.908;2023-03-14T02:28:22;96255.75;;;8.34;49.50
21401;BME280;18038;50.166;18.908;2023-03-14T02:31:35;96263.19;;;8.44;49.88
21401;BME280;18038;50.166;18.908;2023-03-14T02:34:45;96252.25;;;8.52;49.25
21401;BME280;18038;50.166;18.908;2023-03-14T02:38:04;96253.06;;;8.52;49.48
21401;BME280;18038;50.166;18.908;2023-03-14T02:41:19;96256.97;;;8.50;49.78
21401;BME280;18038;50.166;18.908;2023-03-14T02:44:48;96261.97;;;8.28;49.92
21401;BME280;18038;50.166;18.908;2023-03-14T02:48:04;96260.25;;;8.15;50.35
21401;BME280;18038;50.166;18.908;2023-03-14T02:51:18;96262.56;;;7.93;50.59
21401;BME280;18038;50.166;18.908;2023-03-14T02:54:27;96264.09;;;7.82;50.99
21401;BME280;18038;50.166;18.908;2023-03-14T02:57:33;96268.88;;;7.74;51.43
21401;BME280;18038;50.166;18.908;2023-03-14T03:00:49;96258.78;;;7.82;50.99
21401;BME280;18038;50.166;18.908;2023-03-14T03:03:57;96256.59;;;7.98;50.00
21401;BME280;18038;50.166;18.908;2023-03-14T03:07:07;96240.25;;;7.94;50.09
21401;BME280;18038;50.166;18.908;2023-03-14T03:10:14;96245.50;;;8.01;49.90
21401;BME280;18038;50.166;18.908;2023-03-14T03:13:22;96244.41;;;8.08;49.79
21401;BME280;18038;50.166;18.908;2023-03-14T03:16:32;96248.47;;;8.11;49.59
21401;BME280;18038;50.166;18.908;2023-03-14T03:19:39;96254.59;;;8.12;49.28
21401;BME280;18038;50.166;18.908;2023-03-14T03:22:45;96253.63;;;8.06;49.28
21401;BME280;18038;50.166;18.908;2023-03-14T03:25:53;96246.66;;;8.05;49.11
21401;BME280;18038;50.166;18.908;2023-03-14T03:28:59;96246.09;;;7.84;50.26
21401;BME280;18038;50.166;18.908;2023-03-14T03:32:09;96254.78;;;7.92;50.04
21401;BME280;18038;50.166;18.908;2023-03-14T03:35:15;96264.81;;;7.89;50.18
21401;BME280;18038;50.166;18.908;2023-03-14T03:38:22;96261.00;;;8.04;49.41
21401;BME280;18038;50.166;18.908;2023-03-14T03:41:30;96281.94;;;8.19;49.39
21401;BME280;18038;50.166;18.908;2023-03-14T03:44:38;96285.53;;;8.24;48.83
21401;BME280;18038;50.166;18.908;2023-03-14T03:47:48;96286.66;;;8.35;48.56
21401;BME280;18038;50.166;18.908;2023-03-14T03:50:58;96296.16;;;8.43;48.79
21401;BME280;18038;50.166;18.908;2023-03-14T03:54:05;96306.88;;;8.54;48.37
21401;BME280;18038;50.166;18.908;2023-03-14T03:57:13;96308.72;;;8.54;48.57
21401;BME280;18038;50.166;18.908;2023-03-14T04:00:37;96288.59;;;8.58;48.32
21401;BME280;18038;50.166;18.908;2023-03-14T04:03:54;96297.75;;;8.62;48.25
21401;BME280;18038;50.166;18.908;2023-03-14T04:07:01;96290.81;;;8.61;48.14
21401;BME280;18038;50.166;18.908;2023-03-14T04:10:10;96303.22;;;8.67;48.39
21401;BME280;18038;50.166;18.908;2023-03-14T04:13:22;96304.25;;;8.66;48.07
21401;BME280;18038;50.166;18.908;2023-03-14T04:16:31;96310.31;;;8.73;48.03
21401;BME280;18038;50.166;18.908;2023-03-14T04:19:49;96294.06;;;8.63;48.43
21401;BME280;18038;50.166;18.908;2023-03-14T04:23:03;96294.75;;;8.59;48.50
21401;BME280;18038;50.166;18.908;2023-03-14T04:26:10;96289.63;;;8.57;48.17
21401;BME280;18038;50.166;18.908;2023-03-14T04:29:18;96277.25;;;8.51;48.63
21401;BME280;18038;50.166;18.908;2023-03-14T04:32:24;96277.56;;;8.43;48.51
21401;BME280;18038;50.166;18.908;2023-03-14T04:35:36;96268.38;;;8.39;48.86
21401;BME280;18038;50.166;18.908;2023-03-14T04:38:45;96257.69;;;8.27;49.17
21401;BME280;18038;50.166;18.908;2023-03-14T04:41:55;96248.63;;;8.16;49.44
21401;BME280;18038;50.166;18.908;2023-03-14T04:45:02;96223.03;;;8.15;49.42
21401;BME280;18038;50.166;18.908;2023-03-14T04:48:11;96222.38;;;8.01;49.98
21401;BME280;18038;50.166;18.908;2023-03-14T04:51:20;96215.50;;;7.94;49.89
21401;BME280;18038;50.166;18.908;2023-03-14T04:54:40;96226.00;;;7.88;50.12
21401;BME280;18038;50.166;18.908;2023-03-14T04:57:49;96240.91;;;7.89;50.51
21401;BME280;18038;50.166;18.908;2023-03-14T05:01:02;96235.06;;;7.81;50.55
21401;BME280;18038;50.166;18.908;2023-03-14T05:04:08;96231.59;;;7.80;50.98
21401;BME280;18038;50.166;18.908;2023-03-14T05:07:35;96229.47;;;7.89;50.48
21401;BME280;18038;50.166;18.908;2023-03-14T05:10:54;96226.34;;;7.74;51.20
21401;BME280;18038;50.166;18.908;2023-03-14T05:14:17;96235.28;;;7.61;51.31
21401;BME280;18038;50.166;18.908;2023-03-14T05:17:32;96239.28;;;7.70;50.91
21401;BME280;18038;50.166;18.908;2023-03-14T05:20:50;96232.50;;;7.74;51.09
21401;BME280;18038;50.166;18.908;2023-03-14T05:24:18;96223.63;;;7.80;50.97
21401;BME280;18038;50.166;18.908;2023-03-14T05:27:39;96212.94;;;7.69;51.51
21401;BME280;18038;50.166;18.908;2023-03-14T05:31:01;96212.78;;;7.63;51.71
21401;BME280;18038;50.166;18.908;2023-03-14T05:34:30;96198.25;;;7.66;51.67
21401;BME280;18038;50.166;18.908;2023-03-14T05:38:01;96208.47;;;7.62;51.63
21401;BME280;18038;50.166;18.908;2023-03-14T05:41:46;96198.94;;;7.55;52.23
21401;BME280;18038;50.166;18.908;2023-03-14T05:45:16;96193.66;;;7.55;52.12
21401;BME280;18038;50.166;18.908;2023-03-14T05:48:30;96202.81;;;7.59;52.23
21401;BME280;18038;50.166;18.908;2023-03-14T05:51:42;96187.69;;;7.59;52.24
21401;BME280;18038;50.166;18.908;2023-03-14T05:55:06;96193.28;;;7.51;52.21
21401;BME280;18038;50.166;18.908;2023-03-14T05:58:38;96192.53;;;7.62;52.22
21401;BME280;18038;50.166;18.908;2023-03-14T06:02:20;96193.66;;;7.73;51.73
21401;BME280;18038;50.166;18.908;2023-03-14T06:05:35;96187.09;;;7.76;52.10
21401;BME280;18038;50.166;18.908;2023-03-14T06:08:43;96177.19;;;7.83;51.84
21401;BME280;18038;50.166;18.908;2023-03-14T06:11:49;96166.63;;;7.76;51.68
21401;BME280;18038;50.166;18.908;2023-03-14T06:15:00;96171.38;;;7.74;52.14
21401;BME280;18038;50.166;18.908;2023-03-14T06:18:09;96166.88;;;7.75;51.98
21401;BME280;18038;50.166;18.908;2023-03-14T06:21:18;96145.75;;;7.80;52.07
21401;BME280;18038;50.166;18.908;2023-03-14T06:24:24;96151.94;;;7.74;51.62
21401;BME280;18038;50.166;18.908;2023-03-14T06:27:35;96163.63;;;7.73;52.08
21401;BME280;18038;50.166;18.908;2023-03-14T06:30:43;96165.47;;;7.72;52.03
21401;BME280;18038;50.166;18.908;2023-03-14T06:33:51;96145.38;;;7.76;52.33
21401;BME280;18038;50.166;18.908;2023-03-14T06:37:04;96145.81;;;7.73;51.78
21401;BME280;18038;50.166;18.908;2023-03-14T06:40:12;96144.81;;;7.74;52.23
21401;BME280;18038;50.166;18.908;2023-03-14T06:43:40;96138.59;;;7.80;52.08
21401;BME280;18038;50.166;18.908;2023-03-14T06:46:51;96121.91;;;7.73;52.39
21401;BME280;18038;50.166;18.908;2023-03-14T06:49:57;96107.91;;;7.66;52.60
21401;BME280;18038;50.166;18.908;2023-03-14T06:53:05;96118.38;;;7.79;52.45
21401;BME280;18038;50.166;18.908;2023-03-14T06:56:15;96114.69;;;7.80;52.40
21401;BME280;18038;50.166;18.908;2023-03-14T06:59:23;96105.78;;;7.86;51.87
21401;BME280;18038;50.166;18.908;2023-03-14T07:02:31;96106.88;;;7.97;51.94
21401;BME280;18038;50.166;18.908;2023-03-14T07:05:57;96108.44;;;7.86;52.04
21401;BME280;18038;50.166;18.908;2023-03-14T07:09:03;96119.91;;;7.87;52.17
21401;BME280;18038;50.166;18.908;2023-03-14T07:12:16;96134.31;;;7.98;52.28
21401;BME280;18038;50.166;18.908;2023-03-14T07:15:22;96129.41;;;7.95;51.87
21401;BME280;18038;50.166;18.908;2023-03-14T07:18:36;96132.59;;;8.03;51.67
21401;BME280;18038;50.166;18.908;2023-03-14T07:21:44;96146.19;;;8.25;51.48
21401;BME280;18038;50.166;18.908;2023-03-14T07:24:56;96155.88;;;8.50;51.23
21401;BME280;18038;50.166;18.908;2023-03-14T07:28:02;96156.69;;;8.50;50.84
21401;BME280;18038;50.166;18.908;2023-03-14T07:31:11;96154.91;;;8.74;51.06
21401;BME280;18038;50.166;18.908;2023-03-14T07:34:20;96169.09;;;8.98;49.63
21401;BME280;18038;50.166;18.908;2023-03-14T07:37:27;96176.03;;;9.00;50.04
21401;BME280;18038;50.166;18.908;2023-03-14T07:40:36;96171.34;;;8.95;50.10
21401;BME280;18038;50.166;18.908;2023-03-14T07:43:43;96178.19;;;8.91;49.83
21401;BME280;18038;50.166;18.908;2023-03-14T07:46:49;96185.59;;;8.89;49.96
21401;BME280;18038;50.166;18.908;2023-03-14T07:49:58;96180.09;;;9.02;50.12
21401;BME280;18038;50.166;18.908;2023-03-14T07:53:04;96188.56;;;9.58;48.53
21401;BME280;18038;50.166;18.908;2023-03-14T07:56:11;96177.38;;;9.96;47.83
21401;BME280;18038;50.166;18.908;2023-03-14T07:59:17;96168.50;;;10.19;47.32
21401;BME280;18038;50.166;18.908;2023-03-14T08:02:25;96177.56;;;10.76;45.99
21401;BME280;18038;50.166;18.908;2023-03-14T08:05:34;96184.81;;;10.63;46.08
21401;BME280;18038;50.166;18.908;2023-03-14T08:08:41;96177.06;;;10.33;46.70
21401;BME280;18038;50.166;18.908;2023-03-14T08:11:47;96179.47;;;10.35;46.99
21401;BME280;18038;50.166;18.908;2023-03-14T08:14:54;96175.84;;;10.41;46.71
21401;BME280;18038;50.166;18.908;2023-03-14T08:18:05;96172.06;;;10.37;47.01
21401;BME280;18038;50.166;18.908;2023-03-14T08:21:14;96182.88;;;10.59;46.16
21401;BME280;18038;50.166;18.908;2023-03-14T08:24:20;96176.81;;;10.63;46.83
21401;BME280;18038;50.166;18.908;2023-03-14T08:27:27;96175.88;;;11.20;45.00
21401;BME280;18038;50.166;18.908;2023-03-14T08:30:33;96184.47;;;11.39;44.28
21401;BME280;18038;50.166;18.908;2023-03-14T08:33:40;96181.97;;;11.15;44.73
21401;BME280;18038;50.166;18.908;2023-03-14T08:36:49;96196.13;;;11.16;44.89
21401;BME280;18038;50.166;18.908;2023-03-14T08:39:55;96185.81;;;11.75;43.23
21401;BME280;18038;50.166;18.908;2023-03-14T08:43:01;96205.81;;;12.12;42.76
21401;BME280;18038;50.166;18.908;2023-03-14T08:46:08;96202.91;;;12.13;43.17
21401;BME280;18038;50.166;18.908;2023-03-14T08:49:14;96188.31;;;12.04;43.43
21401;BME280;18038;50.166;18.908;2023-03-14T08:52:23;96192.47;;;11.56;44.08
21401;BME280;18038;50.166;18.908;2023-03-14T08:55:29;96206.25;;;11.48;44.84
21401;BME280;18038;50.166;18.908;2023-03-14T08:58:36;96210.16;;;11.23;45.13
21401;BME280;18038;50.166;18.908;2023-03-14T09:01:45;96210.66;;;10.74;46.09
21401;BME280;18038;50.166;18.908;2023-03-14T09:04:53;96201.53;;;10.70;46.49
21401;BME280;18038;50.166;18.908;2023-03-14T09:08:01;96209.63;;;10.92;46.67
21401;BME280;18038;50.166;18.908;2023-03-14T09:11:08;96206.13;;;10.75;46.03
21401;BME280;18038;50.166;18.908;2023-03-14T09:14:15;96212.69;;;10.84;46.19
21401;BME280;18038;50.166;18.908;2023-03-14T09:17:25;96216.09;;;10.80;46.47
21401;BME280;18038;50.166;18.908;2023-03-14T09:20:31;96226.72;;;10.91;46.54
21401;BME280;18038;50.166;18.908;2023-03-14T09:23:40;96229.84;;;10.88;46.54
21401;BME280;18038;50.166;18.908;2023-03-14T09:26:48;96208.63;;;10.65;47.02
21401;BME280;18038;50.166;18.908;2023-03-14T09:29:57;96216.09;;;10.80;46.72
21401;BME280;18038;50.166;18.908;2023-03-14T09:33:03;96205.75;;;11.00;46.41
21401;BME280;18038;50.166;18.908;2023-03-14T09:36:10;96204.69;;;11.01;46.54
21401;BME280;18038;50.166;18.908;2023-03-14T09:39:22;96210.19;;;11.62;45.12
21401;BME280;18038;50.166;18.908;2023-03-14T09:42:28;96204.69;;;12.30;43.83
21401;BME280;18038;50.166;18.908;2023-03-14T09:45:36;96218.81;;;12.03;44.65
21401;BME280;18038;50.166;18.908;2023-03-14T09:48:46;96221.88;;;11.56;45.31
21401;BME280;18038;50.166;18.908;2023-03-14T09:51:55;96217.91;;;11.58;44.97
21401;BME280;18038;50.166;18.908;2023-03-14T09:55:13;96230.91;;;12.27;44.43
21401;BME280;18038;50.166;18.908;2023-03-14T09:58:23;96222.00;;;12.00;44.54
21401;BME280;18038;50.166;18.908;2023-03-14T10:01:32;96228.38;;;11.99;45.52
21401;BME280;18038;50.166;18.908;2023-03-14T10:04:40;96221.34;;;12.37;44.32
21401;BME280;18038;50.166;18.908;2023-03-14T10:07:50;96233.69;;;12.16;44.94
21401;BME280;18038;50.166;18.908;2023-03-14T10:10:59;96234.50;;;11.77;45.10
21401;BME280;18038;50.166;18.908;2023-03-14T10:14:08;96247.94;;;11.49;46.27
21401;BME280;18038;50.166;18.908;2023-03-14T10:17:18;96259.84;;;11.24;47.33
21401;BME280;18038;50.166;18.908;2023-03-14T10:20:30;96266.19;;;11.18;47.54
21401;BME280;18038;50.166;18.908;2023-03-14T10:23:38;96262.53;;;11.07;47.78
21401;BME280;18038;50.166;18.908;2023-03-14T10:26:53;96258.88;;;10.97;47.96
21401;BME280;18038;50.166;18.908;2023-03-14T10:30:02;96262.72;;;10.89;48.55
21401;BME280;18038;50.166;18.908;2023-03-14T10:33:23;96253.06;;;10.71;49.21
21401;BME280;18038;50.166;18.908;2023-03-14T10:36:33;96256.47;;;10.83;49.13
21401;BME280;18038;50.166;18.908;2023-03-14T10:39:46;96252.47;;;10.98;48.41
21401;BME280;18038;50.166;18.908;2023-03-14T10:42:58;96246.56;;;10.67;49.00
21401;BME280;18038;50.166;18.908;2023-03-14T10:46:14;96252.00;;;10.72;49.35
21401;BME280;18038;50.166;18.908;2023-03-14T10:49:41;96252.16;;;10.65;49.64
21401;BME280;18038;50.166;18.908;2023-03-14T10:52:48;96257.19;;;10.50;49.80
21401;BME280;18038;50.166;18.908;2023-03-14T10:56:05;96258.38;;;10.42;49.71
21401;BME280;18038;50.166;18.908;2023-03-14T10:59:16;96255.47;;;10.32;49.72
21401;BME280;18038;50.166;18.908;2023-03-14T11:02:36;96259.66;;;10.16;50.01
21401;BME280;18038;50.166;18.908;2023-03-14T11:05:57;96258.16;;;10.08;50.48
21401;BME280;18038;50.166;18.908;2023-03-14T11:09:17;96273.69;;;10.12;51.04
21401;BME280;18038;50.166;18.908;2023-03-14T11:12:41;96267.72;;;9.81;52.26
21401;BME280;18038;50.166;18.908;2023-03-14T11:16:18;96263.19;;;9.58;54.94
21401;BME280;18038;50.166;18.908;2023-03-14T11:19:50;96258.75;;;9.28;57.39
21401;BME280;18038;50.166;18.908;2023-03-14T11:23:12;96257.59;;;9.24;57.16
21401;BME280;18038;50.166;18.908;2023-03-14T11:26:30;96258.38;;;9.13;56.28
21401;BME280;18038;50.166;18.908;2023-03-14T11:29:55;96266.84;;;9.10;56.05
21401;BME280;18038;50.166;18.908;2023-03-14T11:33:25;96272.25;;;9.03;56.07
21401;BME280;18038;50.166;18.908;2023-03-14T11:36:42;96275.50;;;9.05;55.82
21401;BME280;18038;50.166;18.908;2023-03-14T11:40:14;96275.75;;;9.15;55.33
21401;BME280;18038;50.166;18.908;2023-03-14T11:43:28;96284.94;;;9.19;55.44
21401;BME280;18038;50.166;18.908;2023-03-14T11:46:43;96286.06;;;9.12;55.06
21401;BME280;18038;50.166;18.908;2023-03-14T11:50:01;96274.69;;;9.05;55.22
21401;BME280;18038;50.166;18.908;2023-03-14T11:53:16;96275.09;;;9.32;54.60
21401;BME280;18038;50.166;18.908;2023-03-14T11:56:33;96265.59;;;9.36;54.37
21401;BME280;18038;50.166;18.908;2023-03-14T11:59:52;96259.81;;;9.39;54.31
21401;BME280;18038;50.166;18.908;2023-03-14T12:03:25;96257.31;;;9.14;54.48
21401;BME280;18038;50.166;18.908;2023-03-14T12:06:51;96247.84;;;9.06;54.41
21401;BME280;18038;50.166;18.908;2023-03-14T12:09:57;96240.28;;;9.03;55.02
21401;BME280;18038;50.166;18.908;2023-03-14T12:13:07;96230.59;;;9.09;54.96
21401;BME280;18038;50.166;18.908;2023-03-14T12:16:33;96219.56;;;9.05;54.98
21401;BME280;18038;50.166;18.908;2023-03-14T12:19:44;96219.59;;;9.17;54.87
21401;BME280;18038;50.166;18.908;2023-03-14T12:22:56;96225.06;;;9.22;55.16
21401;BME280;18038;50.166;18.908;2023-03-14T12:26:18;96220.53;;;9.23;55.12
21401;BME280;18038;50.166;18.908;2023-03-14T12:29:28;96225.06;;;9.34;55.12
21401;BME280;18038;50.166;18.908;2023-03-14T12:32:39;96231.06;;;9.17;55.82
21401;BME280;18038;50.166;18.908;2023-03-14T12:35:58;96239.88;;;9.30;56.62
21401;BME280;18038;50.166;18.908;2023-03-14T12:39:33;96221.53;;;8.98;58.85
21401;BME280;18038;50.166;18.908;2023-03-14T12:42:58;96209.44;;;8.84;59.61
21401;BME280;18038;50.166;18.908;2023-03-14T12:46:18;96206.84;;;9.07;59.67
21401;BME280;18038;50.166;18.908;2023-03-14T12:49:30;96215.16;;;8.99;60.23
21401;BME280;18038;50.166;18.908;2023-03-14T12:52:52;96217.09;;;8.92;60.50
21401;BME280;18038;50.166;18.908;2023-03-14T12:56:26;96211.75;;;8.92;61.28
21401;BME280;18038;50.166;18.908;2023-03-14T12:59:48;96219.75;;;8.92;61.69
21401;BME280;18038;50.166;18.908;2023-03-14T13:03:12;96220.53;;;8.81;62.35
21401;BME280;18038;50.166;18.908;2023-03-14T13:06:47;96217.06;;;8.80;62.57
21401;BME280;18038;50.166;18.908;2023-03-14T13:10:03;96225.59;;;8.70;63.27
21401;BME280;18038;50.166;18.908;2023-03-14T13:13:42;96214.34;;;8.68;63.93
21401;BME280;18038;50.166;18.908;2023-03-14T13:16:51;96224.47;;;8.78;63.61
21401;BME280;18038;50.166;18.908;2023-03-14T13:20:05;96226.97;;;8.61;64.67
21401;BME280;18038;50.166;18.908;2023-03-14T13:23:22;96227.38;;;8.58;64.91
21401;BME280;18038;50.166;18.908;2023-03-14T13:26:37;96224.69;;;8.46;65.68
21401;BME280;18038;50.166;18.908;2023-03-14T13:29:49;96238.88;;;8.59;65.30
21401;BME280;18038;50.166;18.908;2023-03-14T13:32:57;96238.13;;;8.51;65.50
21401;BME280;18038;50.166;18.908;2023-03-14T13:36:09;96255.03;;;8.57;65.47
21401;BME280;18038;50.166;18.908;2023-03-14T13:39:18;96241.78;;;8.39;66.09
21401;BME280;18038;50.166;18.908;2023-03-14T13:42:29;96241.59;;;8.52;66.12
21401;BME280;18038;50.166;18.908;2023-03-14T13:46:06;96250.31;;;8.59;66.15
21401;BME280;18038;50.166;18.908;2023-03-14T13:49:22;96250.25;;;8.47;67.00
21401;BME280;18038;50.166;18.908;2023-03-14T13:52:37;96264.16;;;8.31;67.76
21401;BME280;18038;50.166;18.908;2023-03-14T13:55:43;96259.16;;;8.23;68.57
21401;BME280;18038;50.166;18.908;2023-03-14T13:58:51;96256.28;;;8.06;69.20
21401;BME280;18038;50.166;18.908;2023-03-14T14:02:04;96260.56;;;8.07;69.71
21401;BME280;18038;50.166;18.908;2023-03-14T14:05:22;96265.81;;;8.14;69.70
21401;BME280;18038;50.166;18.908;2023-03-14T14:08:31;96264.31;;;7.99;70.85
21401;BME280;18038;50.166;18.908;2023-03-14T14:11:44;96263.31;;;8.00;70.82
21401;BME280;18038;50.166;18.908;2023-03-14T14:15:20;96263.44;;;7.87;71.92
21401;BME280;18038;50.166;18.908;2023-03-14T14:18:35;96260.19;;;7.85;72.76
21401;BME280;18038;50.166;18.908;2023-03-14T14:21:43;96264.16;;;7.76;73.81
21401;BME280;18038;50.166;18.908;2023-03-14T14:24:50;96247.53;;;7.62;74.46
21401;BME280;18038;50.166;18.908;2023-03-14T14:27:57;96226.03;;;7.45;75.06
21401;BME280;18038;50.166;18.908;2023-03-14T14:31:19;96232.75;;;7.48;75.23
21401;BME280;18038;50.166;18.908;2023-03-14T14:34:39;96223.00;;;7.41;75.43
21401;BME280;18038;50.166;18.908;2023-03-14T14:37:53;96222.13;;;7.48;75.64
21401;BME280;18038;50.166;18.908;2023-03-14T14:41:01;96214.84;;;7.36;75.72
21401;BME280;18038;50.166;18.908;2023-03-14T14:44:13;96208.09;;;7.40;76.05
21401;BME280;18038;50.166;18.908;2023-03-14T14:47:25;96197.31;;;7.29;76.18
21401;BME280;18038;50.166;18.908;2023-03-14T14:50:44;96186.25;;;7.38;75.79
21401;BME280;18038;50.166;18.908;2023-03-14T14:54:03;96191.66;;;7.50;75.53
21401;BME280;18038;50.166;18.908;2023-03-14T14:57:22;96197.00;;;7.69;74.67
21401;BME280;18038;50.166;18.908;2023-03-14T15:00:31;96206.50;;;7.95;73.74
21401;BME280;18038;50.166;18.908;2023-03-14T15:03:42;96201.34;;;7.81;73.22
21401;BME280;18038;50.166;18.908;2023-03-14T15:06:53;96198.47;;;7.83;73.19
21401;BME280;18038;50.166;18.908;2023-03-14T15:09:59;96209.00;;;7.89;72.97
21401;BME280;18038;50.166;18.908;2023-03-14T15:13:06;96199.84;;;7.67;73.90
21401;BME280;18038;50.166;18.908;2023-03-14T15:16:20;96192.03;;;7.54;74.05
21401;BME280;18038;50.166;18.908;2023-03-14T15:19:28;96188.63;;;7.47;74.20
21401;BME280;18038;50.166;18.908;2023-03-14T15:22:40;96193.31;;;7.44;73.94
21401;BME280;18038;50.166;18.908;2023-03-14T15:25:46;96197.06;;;7.62;73.53
21401;BME280;18038;50.166;18.908;2023-03-14T15:28:58;96194.09;;;7.70;73.45
21401;BME280;18038;50.166;18.908;2023-03-14T15:32:05;96189.84;;;7.87;72.62
21401;BME280;18038;50.166;18.908;2023-03-14T15:35:12;96195.06;;;7.76;72.33
21401;BME280;18038;50.166;18.908;2023-03-14T15:38:23;96172.84;;;7.70;72.31
21401;BME280;18038;50.166;18.908;2023-03-14T15:41:30;96175.19;;;7.60;72.77
21401;BME280;18038;50.166;18.908;2023-03-14T15:44:37;96164.19;;;7.38;73.35
21401;BME280;18038;50.166;18.908;2023-03-14T15:47:43;96170.38;;;7.32;73.85
21401;BME280;18038;50.166;18.908;2023-03-14T15:50:49;96163.75;;;7.41;73.29
21401;BME280;18038;50.166;18.908;2023-03-14T15:53:59;96145.78;;;7.36;73.40
21401;BME280;18038;50.166;18.908;2023-03-14T15:57:05;96133.25;;;7.25;73.27
21401;BME280;18038;50.166;18.908;2023-03-14T16:00:14;96135.91;;;7.25;73.58
21401;BME280;18038;50.166;18.908;2023-03-14T16:03:24;96142.00;;;7.26;73.82
21401;BME280;18038;50.166;18.908;2023-03-14T16:06:31;96145.91;;;7.23;73.44
21401;BME280;18038;50.166;18.908;2023-03-14T16:09:40;96138.22;;;7.15;73.65
21401;BME280;18038;50.166;18.908;2023-03-14T16:12:50;96148.03;;;7.14;74.11
21401;BME280;18038;50.166;18.908;2023-03-14T16:16:06;96146.81;;;7.17;73.79
21401;BME280;18038;50.166;18.908;2023-03-14T16:19:15;96161.03;;;7.22;72.99
21401;BME280;18038;50.166;18.908;2023-03-14T16:22:22;96158.03;;;7.19;72.71
21401;BME280;18038;50.166;18.908;2023-03-14T16:25:32;96183.03;;;7.30;72.52
21401;BME280;18038;50.166;18.908;2023-03-14T16:28:38;96197.72;;;7.32;72.58
21401;BME280;18038;50.166;18.908;2023-03-14T16:31:45;96189.75;;;7.32;72.51
21401;BME280;18038;50.166;18.908;2023-03-14T16:34:53;96200.13;;;7.40;71.90
21401;BME280;18038;50.166;18.908;2023-03-14T16:38:11;96216.66;;;7.42;72.08
21401;BME280;18038;50.166;18.908;2023-03-14T16:41:20;96226.13;;;7.32;72.12
21401;BME280;18038;50.166;18.908;2023-03-14T16:44:28;96227.13;;;7.37;72.36
21401;BME280;18038;50.166;18.908;2023-03-14T16:47:34;96226.25;;;7.43;72.25
21401;BME280;18038;50.166;18.908;2023-03-14T16:50:41;96222.19;;;7.41;72.09
21401;BME280;18038;50.166;18.908;2023-03-14T16:53:50;96226.94;;;7.32;72.35
21401;BME280;18038;50.166;18.908;2023-03-14T16:57:00;96214.44;;;7.39;71.61